Time;durP1;ratioP1;P1;durP2;ratioP2;P2;SDS_P1;SDS_P2;PMS_P1;PMS_P2;Temp;Humidity;BMP_temperature;BMP_pressure;BME280_temperature;BME280_humidity;BME280_pressure;Samples;Min_cycle;Max_cycle;Signal;HPM_P1;HPM_P2
2023/07/31 00:00:47;;;;;;;9.95;4.22;;;16.70;99.90;;;;;;5098700;28;20118;-59
2023/07/31 00:03:13;;;;;;;8.48;4.10;;;16.60;99.90;;;;;;5100361;28;20033;-59
2023/07/31 00:05:39;;;;;;;8.10;4.05;;;16.60;99.90;;;;;;5099741;28;20040;-58
2023/07/31 00:08:04;;;;;;;8.18;4.22;;;16.60;99.90;;;;;;5099307;28;20380;-60
2023/07/31 00:10:30;;;;;;;7.72;4.47;;;16.60;99.90;;;;;;5082614;28;20047;-58
2023/07/31 00:12:55;;;;;;;8.02;4.40;;;16.70;99.90;;;;;;5098617;28;20036;-59
2023/07/31 00:15:21;;;;;;;8.68;4.45;;;16.70;99.90;;;;;;5100529;28;20044;-59
2023/07/31 00:17:47;;;;;;;9.63;5.43;;;16.60;99.90;;;;;;5098239;28;20066;-59
2023/07/31 00:20:13;;;;;;;8.55;4.75;;;16.60;99.90;;;;;;5099983;28;20044;-59
2023/07/31 00:22:38;;;;;;;8.48;4.18;;;16.70;99.90;;;;;;5099052;28;20051;-58
2023/07/31 00:25:06;;;;;;;8.80;4.13;;;16.60;99.90;;;;;;5099224;28;20032;-58
2023/07/31 00:27:32;;;;;;;7.70;3.95;;;16.50;99.90;;;;;;5099675;28;20059;-58
2023/07/31 00:29:58;;;;;;;7.05;3.20;;;16.70;99.90;;;;;;5098185;28;20048;-61
2023/07/31 00:32:23;;;;;;;5.75;2.40;;;16.40;99.90;;;;;;5100243;28;20047;-68
2023/07/31 00:34:49;;;;;;;6.00;2.45;;;16.60;99.90;;;;;;5098550;28;20086;-67
2023/07/31 00:37:15;;;;;;;6.10;2.35;;;16.50;99.90;;;;;;5081704;28;20044;-68
2023/07/31 00:39:41;;;;;;;6.30;2.50;;;16.20;99.90;;;;;;5080984;28;20559;-67
2023/07/31 00:42:07;;;;;;;7.90;3.17;;;16.30;99.90;;;;;;5099118;28;20093;-69
2023/07/31 00:44:33;;;;;;;9.85;4.03;;;16.20;99.90;;;;;;5099791;28;20094;-68
2023/07/31 00:46:59;;;;;;;10.40;4.15;;;16.20;99.90;;;;;;5098116;28;20047;-66
2023/07/31 00:49:25;;;;;;;8.70;3.47;;;16.20;99.90;;;;;;5099914;28;20117;-63
2023/07/31 00:51:51;;;;;;;8.90;3.60;;;16.10;99.90;;;;;;5079641;28;20153;-62
2023/07/31 00:54:17;;;;;;;8.60;4.35;;;16.30;99.90;;;;;;5099151;28;20048;-61
2023/07/31 00:56:45;;;;;;;10.32;4.15;;;16.30;99.90;;;;;;5098291;28;20036;-61
2023/07/31 00:59:11;;;;;;;6.97;3.78;;;16.20;99.90;;;;;;5099062;28;20181;-61
2023/07/31 01:01:37;;;;;;;10.52;4.05;;;16.10;99.90;;;;;;5099960;28;20079;-60
2023/07/31 01:04:03;;;;;;;7.97;4.45;;;16.10;99.90;;;;;;5097652;28;20384;-60
2023/07/31 01:06:48;;;;;;;8.25;4.55;;;16.10;99.90;;;;;;5100129;28;20066;-60
2023/07/31 01:09:40;;;;;;;8.25;4.93;;;16.20;99.90;;;;;;5079426;28;20076;-60
2023/07/31 01:12:07;;;;;;;8.68;4.30;;;16.10;99.90;;;;;;5098501;28;20040;-60
2023/07/31 01:14:33;;;;;;;7.18;3.85;;;16.20;99.90;;;;;;5099582;28;20036;-59
2023/07/31 01:16:59;;;;;;;7.50;3.97;;;16.00;99.90;;;;;;5097580;28;20060;-59
2023/07/31 01:19:29;;;;;;;7.13;4.18;;;16.20;99.90;;;;;;5099122;28;20044;-59
2023/07/31 01:22:28;;;;;;;8.77;3.90;;;16.00;99.90;;;;;;5097436;28;20040;-59
2023/07/31 01:25:15;;;;;;;6.15;3.38;;;16.10;99.90;;;;;;5098553;28;20130;-60
2023/07/31 01:27:56;;;;;;;5.78;2.88;;;16.10;99.90;;;;;;5099321;28;20078;-59
2023/07/31 01:30:26;;;;;;;6.25;2.70;;;16.20;99.90;;;;;;5097294;28;20104;-60
2023/07/31 01:32:54;;;;;;;5.93;2.65;;;16.20;99.90;;;;;;5098897;28;20040;-59
2023/07/31 01:35:20;;;;;;;6.70;2.90;;;16.10;99.90;;;;;;5097788;28;20126;-60
2023/07/31 01:37:46;;;;;;;6.85;3.88;;;16.10;99.90;;;;;;5098737;28;20040;-60
2023/07/31 01:40:12;;;;;;;7.97;3.70;;;16.10;99.90;;;;;;5099443;28;20091;-61
2023/07/31 01:42:37;;;;;;;6.97;4.38;;;16.00;99.90;;;;;;5097273;28;20066;-60
2023/07/31 01:45:03;;;;;;;9.23;4.80;;;16.20;99.90;;;;;;5099497;28;20067;-63
2023/07/31 01:47:29;;;;;;;7.15;4.65;;;16.10;99.90;;;;;;5097181;28;20044;-62
2023/07/31 01:49:55;;;;;;;7.75;4.47;;;16.00;99.90;;;;;;5099036;28;20040;-63
2023/07/31 01:52:21;;;;;;;7.95;4.50;;;16.10;99.90;;;;;;5096619;28;20043;-63
2023/07/31 01:54:46;;;;;;;7.50;4.13;;;16.00;99.90;;;;;;5080280;28;20044;-63
2023/07/31 01:57:12;;;;;;;6.03;3.78;;;16.10;99.90;;;;;;5087244;28;20047;-63
2023/07/31 01:59:37;;;;;;;9.13;4.38;;;16.00;99.90;;;;;;5077196;28;20110;-63
2023/07/31 02:02:03;;;;;;;7.38;4.15;;;16.00;99.90;;;;;;5060872;28;20051;-63
2023/07/31 02:04:29;;;;;;;8.02;4.47;;;16.00;99.90;;;;;;5075754;28;20040;-64
2023/07/31 02:06:55;;;;;;;7.50;4.35;;;16.00;99.90;;;;;;5078544;28;20072;-64
2023/07/31 02:09:20;;;;;;;6.78;4.05;;;16.10;99.90;;;;;;5076776;28;20045;-63
2023/07/31 02:11:46;;;;;;;6.15;4.22;;;16.10;99.90;;;;;;5078171;28;20047;-63
2023/07/31 02:14:11;;;;;;;8.25;4.22;;;15.90;99.90;;;;;;5077974;28;20048;-63
2023/07/31 02:16:37;;;;;;;7.10;4.13;;;16.10;99.90;;;;;;5077516;28;20044;-64
2023/07/31 02:19:03;;;;;;;8.02;4.10;;;15.90;99.90;;;;;;5078566;28;20068;-63
2023/07/31 02:21:28;;;;;;;7.20;3.55;;;16.10;99.90;;;;;;5076782;28;20041;-62
2023/07/31 02:23:54;;;;;;;7.07;3.72;;;16.10;99.90;;;;;;5078608;28;20059;-62
2023/07/31 02:26:20;;;;;;;8.00;3.65;;;16.10;99.90;;;;;;5076677;28;20080;-63
2023/07/31 02:28:46;;;;;;;6.10;3.55;;;16.10;99.90;;;;;;5078264;28;20466;-64
2023/07/31 02:31:12;;;;;;;9.18;3.60;;;16.10;99.90;;;;;;5077386;28;20036;-63
2023/07/31 02:33:37;;;;;;;7.68;3.33;;;15.90;99.90;;;;;;5077480;28;20056;-63
2023/07/31 02:36:03;;;;;;;6.60;3.00;;;15.90;99.90;;;;;;5078521;28;20054;-63
2023/07/31 02:38:29;;;;;;;6.75;3.60;;;15.90;99.90;;;;;;5076263;28;20094;-64
2023/07/31 02:40:54;;;;;;;7.57;2.92;;;15.90;99.90;;;;;;5078352;28;20072;-62
2023/07/31 02:43:20;;;;;;;6.50;3.50;;;15.90;99.90;;;;;;5076062;28;20459;-64
2023/07/31 02:45:46;;;;;;;8.35;3.40;;;16.10;99.90;;;;;;5078454;28;20132;-64
2023/07/31 02:48:11;;;;;;;7.03;3.22;;;16.00;99.90;;;;;;5076552;28;20045;-64
2023/07/31 02:50:37;;;;;;;8.45;4.00;;;16.00;99.90;;;;;;5077530;28;20052;-64
2023/07/31 02:53:02;;;;;;;6.32;3.13;;;15.90;99.90;;;;;;5078285;28;20040;-63
2023/07/31 02:55:28;;;;;;;6.72;3.35;;;16.00;99.90;;;;;;5076666;28;20072;-63
2023/07/31 02:57:54;;;;;;;6.45;3.00;;;16.10;99.90;;;;;;5093683;28;20048;-61
2023/07/31 03:00:19;;;;;;;6.97;3.90;;;16.10;99.90;;;;;;5096120;28;20040;-66
2023/07/31 03:02:45;;;;;;;7.35;3.75;;;16.00;99.90;;;;;;5097881;28;20054;-69
2023/07/31 03:05:11;;;;;;;8.88;3.90;;;16.10;99.90;;;;;;5099268;28;20040;-67
2023/07/31 03:07:36;;;;;;;7.70;4.20;;;15.90;99.90;;;;;;5100943;28;20048;-64
2023/07/31 03:10:02;;;;;;;7.35;3.65;;;16.00;99.90;;;;;;5083561;28;20044;-64
2023/07/31 03:12:28;;;;;;;7.13;3.53;;;15.80;99.90;;;;;;5100295;28;20054;-63
2023/07/31 03:14:53;;;;;;;7.75;3.25;;;15.80;99.90;;;;;;5102564;28;20051;-64
2023/07/31 03:17:19;;;;;;;5.35;3.03;;;15.90;99.90;;;;;;5099527;28;20040;-63
2023/07/31 03:19:45;;;;;;;6.57;3.45;;;15.90;99.90;;;;;;5101582;28;20044;-63
2023/07/31 03:22:10;;;;;;;9.15;3.22;;;15.90;99.90;;;;;;5099677;28;20127;-63
2023/07/31 03:24:36;;;;;;;8.57;3.30;;;16.00;99.90;;;;;;5101103;28;20040;-63
2023/07/31 03:27:02;;;;;;;5.80;2.90;;;16.00;99.90;;;;;;5100244;28;20189;-65
2023/07/31 03:29:27;;;;;;;6.00;2.83;;;15.90;99.90;;;;;;5099992;28;20047;-65
2023/07/31 03:31:53;;;;;;;7.28;2.80;;;15.90;99.90;;;;;;5101438;28;20055;-64
2023/07/31 03:34:19;;;;;;;7.80;2.97;;;16.00;99.90;;;;;;5099043;28;20051;-63
2023/07/31 03:36:44;;;;;;;6.18;2.90;;;16.00;99.90;;;;;;5101533;28;20055;-63
2023/07/31 03:39:10;;;;;;;5.20;2.50;;;16.00;99.90;;;;;;5080995;28;20131;-62
2023/07/31 03:41:36;;;;;;;5.70;2.60;;;16.00;99.90;;;;;;5101291;28;20096;-64
2023/07/31 03:44:02;;;;;;;5.10;2.63;;;16.00;99.90;;;;;;5099964;28;20086;-64
2023/07/31 03:46:27;;;;;;;7.03;2.92;;;16.00;99.90;;;;;;5099515;28;20040;-63
2023/07/31 03:48:53;;;;;;;6.07;3.00;;;16.00;99.90;;;;;;5100728;28;20077;-63
2023/07/31 03:51:19;;;;;;;5.88;2.78;;;15.80;99.90;;;;;;5099118;28;20028;-64
2023/07/31 03:53:44;;;;;;;5.90;2.88;;;16.00;99.90;;;;;;5101249;28;20043;-67
2023/07/31 03:56:11;;;;;;;6.68;2.50;;;15.90;99.90;;;;;;5096343;28;20036;-67
2023/07/31 03:58:36;;;;;;;6.43;2.60;;;16.00;99.90;;;;;;5081153;28;20044;-67
2023/07/31 04:01:03;;;;;;;7.15;2.20;;;15.80;99.90;;;;;;5079413;28;20559;-66
2023/07/31 04:03:29;;;;;;;4.97;2.25;;;16.00;99.90;;;;;;5079871;28;20041;-63
2023/07/31 04:05:58;;;;;;;5.40;1.92;;;16.00;99.90;;;;;;5062512;28;20040;-62
2023/07/31 04:08:24;;;;;;;4.80;2.30;;;16.00;99.90;;;;;;5078674;28;20082;-62
2023/07/31 04:10:49;;;;;;;6.07;2.20;;;15.80;99.90;;;;;;5080566;28;20032;-62
2023/07/31 04:13:15;;;;;;;4.18;1.73;;;15.80;99.90;;;;;;5078184;28;20045;-62
2023/07/31 04:15:41;;;;;;;5.65;1.75;;;15.80;99.90;;;;;;5080040;28;20081;-63
2023/07/31 04:18:07;;;;;;;4.95;1.85;;;16.00;99.90;;;;;;5078941;28;20134;-63
2023/07/31 04:20:32;;;;;;;5.20;2.40;;;15.80;99.90;;;;;;5080142;28;20040;-62
2023/07/31 04:22:58;;;;;;;6.28;2.22;;;15.90;99.90;;;;;;5061741;28;20109;-61
2023/07/31 04:25:24;;;;;;;5.25;1.92;;;15.90;99.90;;;;;;5078564;28;20068;-64
2023/07/31 04:27:49;;;;;;;5.43;1.80;;;15.80;99.90;;;;;;5080120;28;20054;-63
2023/07/31 04:30:15;;;;;;;5.22;2.50;;;15.90;99.90;;;;;;5078105;28;20074;-62
2023/07/31 04:32:41;;;;;;;5.10;2.00;;;15.90;99.90;;;;;;5080153;28;20079;-62
2023/07/31 04:35:07;;;;;;;5.05;1.90;;;16.10;99.90;;;;;;5060869;28;20064;-61
2023/07/31 04:37:32;;;;;;;5.05;1.73;;;16.10;99.90;;;;;;5079768;28;20050;-61
2023/07/31 04:39:58;;;;;;;4.93;1.70;;;16.00;99.90;;;;;;5079597;28;20036;-61
2023/07/31 04:42:24;;;;;;;4.60;1.77;;;16.10;99.90;;;;;;5079192;28;20033;-60
2023/07/31 04:44:49;;;;;;;5.43;1.85;;;15.90;99.90;;;;;;5081556;28;20104;-62
2023/07/31 04:47:15;;;;;;;4.45;1.77;;;15.90;99.90;;;;;;5079792;28;20055;-62
2023/07/31 04:49:41;;;;;;;4.75;1.90;;;16.00;99.90;;;;;;5079111;28;20410;-63
2023/07/31 04:52:06;;;;;;;4.15;1.60;;;15.90;99.90;;;;;;5077694;28;20045;-62
2023/07/31 04:54:32;;;;;;;5.38;1.67;;;16.00;99.90;;;;;;5079501;28;20048;-62
2023/07/31 04:56:58;;;;;;;4.72;1.60;;;16.00;99.90;;;;;;5087762;28;20044;-61
2023/07/31 04:59:23;;;;;;;4.43;1.60;;;16.00;99.90;;;;;;5080119;28;20509;-62
2023/07/31 05:01:49;;;;;;;4.78;1.90;;;16.00;99.90;;;;;;5100087;28;20055;-66
2023/07/31 05:04:15;;;;;;;4.28;1.60;;;16.10;99.90;;;;;;5097931;28;20048;-68
2023/07/31 05:06:42;;;;;;;3.20;1.33;;;16.10;99.90;;;;;;5081933;28;20113;-64
2023/07/31 05:09:09;;;;;;;3.92;1.40;;;16.10;99.90;;;;;;5097725;28;20071;-64
2023/07/31 05:11:35;;;;;;;4.40;1.50;;;15.90;99.90;;;;;;5099155;28;20047;-63
2023/07/31 05:14:01;;;;;;;5.30;1.85;;;16.00;99.90;;;;;;5098105;28;20063;-63
2023/07/31 05:16:26;;;;;;;6.05;1.75;;;15.90;99.90;;;;;;5067537;28;20056;-62
2023/07/31 05:18:52;;;;;;;3.42;1.50;;;15.90;99.90;;;;;;5078653;28;20044;-62
2023/07/31 05:21:18;;;;;;;3.92;1.55;;;16.00;99.90;;;;;;5077037;28;20076;-61
2023/07/31 05:23:43;;;;;;;3.40;1.40;;;16.10;99.90;;;;;;5078820;28;20040;-61
2023/07/31 05:26:09;;;;;;;4.07;1.67;;;16.00;99.90;;;;;;5072874;28;20040;-64
2023/07/31 05:28:35;;;;;;;2.60;1.10;;;16.10;99.90;;;;;;5073703;28;20511;-64
2023/07/31 05:31:02;;;;;;;2.83;1.23;;;15.90;99.90;;;;;;5074295;28;20068;-63
2023/07/31 05:33:28;;;;;;;2.38;1.00;;;16.00;99.90;;;;;;5073609;28;20044;-64
2023/07/31 05:35:54;;;;;;;3.00;0.98;;;15.90;99.90;;;;;;5074546;28;20059;-65
2023/07/31 05:38:20;;;;;;;2.67;1.00;;;16.10;99.90;;;;;;5072513;28;20048;-67
2023/07/31 05:40:47;;;;;;;1.48;0.75;;;16.10;99.90;;;;;;5075179;28;20452;-66
2023/07/31 05:43:13;;;;;;;2.55;0.80;;;16.00;99.90;;;;;;5073204;28;20055;-66
2023/07/31 05:45:40;;;;;;;4.63;1.63;;;16.00;99.90;;;;;;5074396;28;20115;-70
2023/07/31 05:48:05;;;;;;;3.58;1.02;;;16.00;99.90;;;;;;5073393;28;20075;-68
2023/07/31 05:50:32;;;;;;;5.05;1.60;;;16.00;99.90;;;;;;5073854;28;20068;-66
2023/07/31 05:52:57;;;;;;;3.70;1.38;;;16.10;99.90;;;;;;5074915;28;20491;-64
2023/07/31 05:55:26;;;;;;;6.97;1.30;;;16.00;99.90;;;;;;5072943;28;20141;-62
2023/07/31 05:57:52;;;;;;;3.65;1.13;;;16.20;99.90;;;;;;5090971;28;20039;-62
2023/07/31 06:00:18;;;;;;;4.20;1.38;;;16.20;99.90;;;;;;5092811;28;20097;-63
2023/07/31 06:02:44;;;;;;;3.97;1.33;;;16.30;99.90;;;;;;5095054;28;20048;-69
2023/07/31 06:05:10;;;;;;;3.05;1.20;;;16.10;99.90;;;;;;5093957;28;20090;-70
2023/07/31 06:07:36;;;;;;;4.70;1.38;;;16.20;99.90;;;;;;5075527;28;20067;-70
2023/07/31 06:10:04;;;;;;;4.88;1.60;;;16.10;99.90;;;;;;5094559;28;20047;-65
2023/07/31 06:12:31;;;;;;;6.22;1.70;;;16.10;99.90;;;;;;5092133;28;20468;-64
2023/07/31 06:14:57;;;;;;;4.22;1.77;;;16.20;99.90;;;;;;5060158;28;20044;-63
2023/07/31 06:17:23;;;;;;;5.10;1.67;;;16.20;99.90;;;;;;5074574;28;20044;-61
2023/07/31 06:19:49;;;;;;;5.03;1.70;;;16.30;99.90;;;;;;5093979;28;20529;-61
2023/07/31 06:22:15;;;;;;;8.18;2.30;;;16.40;99.90;;;;;;5093661;28;20070;-66
2023/07/31 06:24:41;;;;;;;5.05;1.73;;;16.30;99.90;;;;;;5093521;28;20063;-70
2023/07/31 06:27:06;;;;;;;6.00;2.58;;;16.20;99.90;;;;;;5075856;28;20047;-70
2023/07/31 06:29:32;;;;;;;5.38;1.80;;;16.30;99.90;;;;;;5074407;28;20494;-69
2023/07/31 06:31:58;;;;;;;9.75;2.38;;;16.30;99.90;;;;;;5095524;28;20048;-68
2023/07/31 06:34:24;;;;;;;8.07;2.28;;;16.10;99.90;;;;;;5092197;28;20036;-68
2023/07/31 06:36:50;;;;;;;7.78;2.88;;;16.20;99.90;;;;;;5094025;28;20101;-65
2023/07/31 06:39:16;;;;;;;6.90;2.75;;;16.40;99.90;;;;;;5076161;28;20095;-63
2023/07/31 06:41:42;;;;;;;9.73;3.25;;;16.30;99.90;;;;;;5098012;28;20028;-62
2023/07/31 06:44:08;;;;;;;11.20;3.47;;;16.30;99.90;;;;;;5098632;28;20410;-61
2023/07/31 06:46:34;;;;;;;11.70;3.65;;;16.40;99.90;;;;;;5097132;28;20238;-61
2023/07/31 06:48:59;;;;;;;13.38;4.03;;;16.30;99.90;;;;;;5097954;28;20040;-60
2023/07/31 06:51:25;;;;;;;16.38;4.50;;;16.30;99.90;;;;;;5096055;28;20035;-62
2023/07/31 06:53:51;;;;;;;10.75;4.60;;;16.60;99.90;;;;;;5098439;28;20052;-62
2023/07/31 06:56:17;;;;;;;12.45;5.35;;;16.60;99.90;;;;;;5085762;28;20036;-61
2023/07/31 06:58:42;;;;;;;12.77;4.30;;;16.70;99.90;;;;;;5087135;28;20036;-61
2023/07/31 07:01:08;;;;;;;15.05;5.57;;;16.60;99.90;;;;;;5086296;28;20036;-60
2023/07/31 07:03:34;;;;;;;21.73;4.93;;;16.70;99.90;;;;;;5087166;28;20052;-60
2023/07/31 07:06:00;;;;;;;16.70;5.90;;;16.80;99.90;;;;;;5088609;28;20057;-60
2023/07/31 07:08:26;;;;;;;16.27;5.47;;;16.80;99.90;;;;;;5087230;28;20693;-60
2023/07/31 07:10:52;;;;;;;17.17;5.20;;;16.80;99.90;;;;;;5097912;28;20040;-60
2023/07/31 07:13:18;;;;;;;20.33;5.45;;;16.90;99.90;;;;;;5088724;28;20071;-60
2023/07/31 07:15:49;;;;;;;18.15;6.28;;;17.00;99.90;;;;;;5076151;28;20079;-60
2023/07/31 07:18:14;;;;;;;16.25;5.75;;;16.80;99.90;;;;;;5096934;28;20058;-60
2023/07/31 07:20:45;;;;;;;18.95;5.78;;;16.90;99.90;;;;;;5096921;28;20080;-60
2023/07/31 07:23:11;;;;;;;15.77;4.87;;;17.00;99.90;;;;;;5098208;28;20215;-60
2023/07/31 07:25:38;;;;;;;10.73;3.95;;;17.00;99.90;;;;;;5095469;28;20309;-59
2023/07/31 07:28:04;;;;;;;12.18;4.45;;;16.90;99.90;;;;;;5097958;28;20073;-60
2023/07/31 07:30:29;;;;;;;12.52;4.25;;;16.80;99.90;;;;;;5096093;28;20040;-60
2023/07/31 07:32:55;;;;;;;12.57;3.70;;;17.00;99.90;;;;;;5097989;28;20079;-60
2023/07/31 07:35:21;;;;;;;16.88;4.75;;;16.80;99.90;;;;;;5096444;28;20123;-60
2023/07/31 07:37:50;;;;;;;11.77;3.55;;;16.70;99.90;;;;;;5085941;28;20102;-60
2023/07/31 07:40:15;;;;;;;14.55;4.75;;;16.90;99.90;;;;;;5077559;28;20048;-60
2023/07/31 07:42:41;;;;;;;13.48;3.97;;;16.90;99.90;;;;;;5075305;28;20631;-59
2023/07/31 07:45:07;;;;;;;13.35;3.58;;;17.10;99.90;;;;;;5077674;28;20113;-59
2023/07/31 07:47:33;;;;;;;12.27;3.97;;;17.00;99.90;;;;;;5075240;28;20461;-59
2023/07/31 07:49:59;;;;;;;13.75;4.07;;;17.10;99.90;;;;;;5075765;28;20082;-59
2023/07/31 07:52:24;;;;;;;8.90;3.53;;;17.00;99.90;;;;;;5075071;28;20045;-59
2023/07/31 07:54:50;;;;;;;10.00;3.78;;;17.00;99.90;;;;;;5058231;28;20045;-60
2023/07/31 07:57:16;;;;;;;11.93;4.45;;;17.00;99.90;;;;;;5069915;28;20075;-60
2023/07/31 07:59:42;;;;;;;10.95;4.38;;;17.20;99.90;;;;;;5095073;28;20079;-60
2023/07/31 08:02:08;;;;;;;10.07;3.80;;;17.30;99.90;;;;;;5096559;28;20080;-60
2023/07/31 08:04:33;;;;;;;7.13;3.22;;;17.10;99.90;;;;;;5094832;28;20040;-60
2023/07/31 08:06:59;;;;;;;8.40;3.20;;;17.20;99.90;;;;;;5078374;28;20044;-60
2023/07/31 08:09:24;;;;;;;8.95;3.13;;;17.50;99.90;;;;;;5094979;28;20121;-60
2023/07/31 08:11:50;;;;;;;8.70;3.17;;;17.30;99.90;;;;;;5096154;28;20044;-60
2023/07/31 08:14:16;;;;;;;7.53;3.03;;;17.30;99.90;;;;;;5096134;28;20044;-61
2023/07/31 08:16:42;;;;;;;5.25;1.70;;;17.50;99.90;;;;;;5076802;28;20120;-63
2023/07/31 08:19:08;;;;;;;4.25;1.45;;;17.40;99.90;;;;;;5096627;28;21483;-64
2023/07/31 08:21:34;;;;;;;4.70;1.38;;;17.20;99.90;;;;;;5094631;28;20465;-64
2023/07/31 08:24:00;;;;;;;4.13;1.30;;;17.40;99.90;;;;;;5096342;28;20098;-63
2023/07/31 08:26:25;;;;;;;2.90;0.90;;;17.40;99.90;;;;;;5093228;28;20063;-63
2023/07/31 08:28:51;;;;;;;2.50;1.00;;;17.10;99.90;;;;;;5095750;28;20094;-63
2023/07/31 08:31:18;;;;;;;2.20;0.85;;;17.30;99.90;;;;;;5095606;28;20032;-63
2023/07/31 08:33:43;;;;;;;3.40;1.10;;;17.30;99.90;;;;;;5094830;28;20623;-62
2023/07/31 08:36:09;;;;;;;3.25;1.10;;;17.40;99.90;;;;;;5095528;28;20044;-62
2023/07/31 08:38:35;;;;;;;2.53;0.90;;;17.20;99.90;;;;;;5093750;28;20032;-59
2023/07/31 08:41:03;;;;;;;2.67;0.80;;;17.50;99.90;;;;;;5096148;28;20103;-61
2023/07/31 08:43:30;;;;;;;2.15;0.90;;;17.50;99.90;;;;;;5090616;28;20040;-60
2023/07/31 08:45:56;;;;;;;1.85;0.80;;;17.50;99.90;;;;;;5085195;28;20033;-60
2023/07/31 08:48:23;;;;;;;2.38;0.90;;;17.40;99.90;;;;;;5083603;28;20036;-60
2023/07/31 08:50:50;;;;;;;2.95;0.90;;;17.60;99.90;;;;;;5084567;28;20059;-60
2023/07/31 08:53:17;;;;;;;1.90;0.73;;;17.40;99.90;;;;;;5086073;28;20094;-60
2023/07/31 08:55:44;;;;;;;1.35;0.60;;;17.60;99.90;;;;;;5074579;28;20151;-60
2023/07/31 08:58:12;;;;;;;2.10;0.70;;;17.70;99.90;;;;;;5094754;28;20047;-60
2023/07/31 09:00:38;;;;;;;1.92;0.70;;;17.40;99.90;;;;;;5093556;28;20044;-60
2023/07/31 09:03:15;;;;;;;1.95;0.80;;;17.40;99.90;;;;;;5095256;28;20052;-60
2023/07/31 09:05:44;;;;;;;1.98;0.80;;;17.50;99.90;;;;;;5094980;28;20052;-60
2023/07/31 09:08:11;;;;;;;2.15;0.68;;;17.60;99.90;;;;;;5094024;28;20078;-59
2023/07/31 09:10:42;;;;;;;1.63;0.60;;;17.50;99.90;;;;;;5095885;28;20067;-60
2023/07/31 09:13:08;;;;;;;1.25;0.55;;;17.50;99.90;;;;;;5093226;28;20511;-60
2023/07/31 09:15:34;;;;;;;0.47;0.40;;;17.50;99.90;;;;;;5095459;28;20087;-60
2023/07/31 09:18:01;;;;;;;1.15;0.50;;;17.60;99.90;;;;;;5075429;28;20048;-59
2023/07/31 09:20:27;;;;;;;1.50;0.68;;;17.40;99.90;;;;;;5094512;28;20040;-60
2023/07/31 09:22:55;;;;;;;1.80;0.50;;;17.40;99.90;;;;;;5095053;28;20052;-59
2023/07/31 09:25:23;;;;;;;1.15;0.50;;;17.40;99.90;;;;;;5092880;28;20054;-59
2023/07/31 09:27:50;;;;;;;1.30;0.60;;;17.60;99.90;;;;;;5095184;28;20044;-60
2023/07/31 09:30:17;;;;;;;1.33;0.55;;;17.50;99.90;;;;;;5074968;28;20063;-59
2023/07/31 09:32:44;;;;;;;1.55;0.60;;;17.60;99.90;;;;;;5095002;28;20117;-59
2023/07/31 09:35:28;;;;;;;1.05;0.50;;;17.90;99.90;;;;;;5075954;28;20052;-59
2023/07/31 09:38:03;;;;;;;1.05;0.50;;;17.60;99.90;;;;;;5092926;28;20063;-60
2023/07/31 09:40:33;;;;;;;0.95;0.60;;;17.80;99.90;;;;;;5095343;28;20048;-59
2023/07/31 09:43:04;;;;;;;1.85;0.70;;;18.00;99.90;;;;;;5092614;28;20051;-58
2023/07/31 09:45:34;;;;;;;1.10;0.57;;;18.10;99.90;;;;;;5094800;28;20044;-59
2023/07/31 09:48:00;;;;;;;0.90;0.60;;;18.00;99.90;;;;;;5093504;28;20043;-59
2023/07/31 09:50:26;;;;;;;1.55;0.70;;;18.00;99.90;;;;;;5092796;28;20044;-60
2023/07/31 09:52:52;;;;;;;1.05;0.55;;;18.20;99.90;;;;;;5095075;28;20562;-60
2023/07/31 09:55:19;;;;;;;1.60;0.60;;;18.00;99.90;;;;;;5092558;28;20080;-60
2023/07/31 09:57:49;;;;;;;2.22;0.70;;;18.00;99.90;;;;;;5065880;28;20101;-60
2023/07/31 10:00:17;;;;;;;2.08;0.80;;;18.00;99.90;;;;;;5092180;28;20496;-61
2023/07/31 10:02:47;;;;;;;2.45;0.80;;;18.00;99.90;;;;;;5094316;28;20068;-61
2023/07/31 10:05:15;;;;;;;1.75;0.57;;;18.10;99.90;;;;;;5093657;28;20075;-60
2023/07/31 10:07:45;;;;;;;3.28;0.90;;;18.10;99.90;;;;;;5093558;28;20050;-61
2023/07/31 10:10:11;;;;;;;8.13;1.67;;;17.60;99.90;;;;;;5095291;28;20075;-65
2023/07/31 10:12:38;;;;;;;3.70;1.30;;;17.60;99.90;;;;;;5092530;28;20044;-64
2023/07/31 10:15:04;;;;;;;6.03;1.48;;;17.60;99.90;;;;;;5094377;28;20062;-64
2023/07/31 10:17:31;;;;;;;7.47;2.05;;;17.60;99.90;;;;;;5092619;28;20563;-62
2023/07/31 10:20:04;;;;;;;5.78;1.60;;;17.70;99.90;;;;;;5094129;28;20512;-63
2023/07/31 10:22:30;;;;;;;7.05;1.80;;;17.50;99.90;;;;;;5075357;28;20518;-63
2023/07/31 10:24:58;;;;;;;5.35;1.67;;;17.80;99.90;;;;;;5092530;28;20055;-67
2023/07/31 10:27:24;;;;;;;5.85;1.73;;;17.80;99.90;;;;;;5076052;28;20055;-66
2023/07/31 10:29:52;;;;;;;5.40;1.58;;;17.90;99.90;;;;;;5091628;28;20056;-63
2023/07/31 10:32:18;;;;;;;4.88;1.20;;;17.90;99.90;;;;;;5094528;28;20566;-62
2023/07/31 10:34:44;;;;;;;3.28;1.20;;;17.80;99.90;;;;;;5092421;28;20078;-62
2023/07/31 10:37:25;;;;;;;3.22;1.30;;;17.70;99.90;;;;;;5093598;28;20052;-62
2023/07/31 10:40:03;;;;;;;3.60;1.13;;;18.10;99.90;;;;;;5094149;28;20041;-63
2023/07/31 10:42:38;;;;;;;3.33;1.10;;;18.00;99.90;;;;;;5092324;28;20056;-61
2023/07/31 10:45:11;;;;;;;3.00;0.90;;;17.90;99.90;;;;;;5094825;28;20056;-61
2023/07/31 10:47:46;;;;;;;2.15;0.80;;;18.00;99.90;;;;;;5092328;28;20048;-61
2023/07/31 10:50:18;;;;;;;3.25;1.02;;;18.00;99.90;;;;;;5093880;28;20055;-61
2023/07/31 10:52:49;;;;;;;3.45;1.20;;;18.20;99.90;;;;;;5094474;28;20111;-60
2023/07/31 10:55:25;;;;;;;3.28;1.05;;;18.40;99.90;;;;;;5092771;28;20067;-60
2023/07/31 10:57:51;;;;;;;2.65;0.98;;;18.50;99.90;;;;;;5077889;28;20186;-61
2023/07/31 11:00:22;;;;;;;1.20;0.60;;;18.60;99.90;;;;;;5054249;28;20100;-60
2023/07/31 11:03:10;;;;;;;0.95;0.60;;;18.30;99.90;;;;;;5058039;28;20037;-60
2023/07/31 11:05:42;;;;;;;1.95;0.70;;;18.30;99.90;;;;;;5094148;28;20511;-60
2023/07/31 11:08:28;;;;;;;2.38;1.00;;;18.50;99.90;;;;;;5091774;28;20048;-60
2023/07/31 11:11:02;;;;;;;1.88;0.90;;;18.60;99.90;;;;;;5094237;28;20048;-60
2023/07/31 11:13:32;;;;;;;2.10;0.88;;;18.40;99.90;;;;;;5091856;28;20055;-60
2023/07/31 11:15:59;;;;;;;3.35;1.02;;;18.50;99.90;;;;;;5075043;28;20420;-60
2023/07/31 11:18:27;;;;;;;2.63;0.90;;;18.60;99.90;;;;;;5093693;28;20044;-58
2023/07/31 11:20:53;;;;;;;2.83;0.95;;;18.40;99.90;;;;;;5091531;28;20066;-60
2023/07/31 11:23:20;;;;;;;3.47;1.20;;;18.40;99.90;;;;;;5093670;28;20772;-66
2023/07/31 11:25:46;;;;;;;2.45;1.00;;;18.40;99.90;;;;;;5092265;28;20044;-67
2023/07/31 11:28:16;;;;;;;3.03;1.05;;;17.90;99.90;;;;;;5096574;28;20464;-64
2023/07/31 11:30:43;;;;;;;2.50;0.93;;;17.80;99.90;;;;;;5076936;28;20148;-63
2023/07/31 11:33:11;;;;;;;3.10;1.08;;;17.90;99.90;;;;;;5096343;28;20054;-62
2023/07/31 11:35:46;;;;;;;3.88;1.20;;;18.20;99.90;;;;;;5097383;28;20040;-61
2023/07/31 11:38:20;;;;;;;4.55;1.70;;;18.10;99.90;;;;;;5089490;28;20126;-61
2023/07/31 11:40:46;;;;;;;3.47;1.70;;;18.20;99.90;;;;;;5085252;28;20044;-61
2023/07/31 11:43:16;;;;;;;3.65;1.60;;;18.40;99.90;;;;;;5083358;28;20097;-60
2023/07/31 11:45:44;;;;;;;4.47;1.73;;;18.30;99.90;;;;;;5086760;28;20052;-60
2023/07/31 11:48:10;;;;;;;6.88;2.47;;;18.40;99.90;;;;;;5084957;28;20047;-59
2023/07/31 11:50:36;;;;;;;4.30;1.67;;;18.60;99.90;;;;;;5095959;28;20047;-60
2023/07/31 11:53:07;;;;;;;5.28;1.88;;;18.70;99.90;;;;;;5100279;28;20044;-61
2023/07/31 11:55:33;;;;;;;6.10;2.83;;;18.70;99.90;;;;;;5098767;28;20059;-60
2023/07/31 11:58:00;;;;;;;7.32;2.40;;;18.60;99.90;;;;;;5082308;28;20033;-60
2023/07/31 12:00:26;;;;;;;6.38;2.30;;;18.60;99.90;;;;;;5078792;28;20108;-66
2023/07/31 12:02:53;;;;;;;6.40;2.25;;;18.60;99.90;;;;;;5079664;28;20056;-67
2023/07/31 12:05:19;;;;;;;4.55;1.83;;;18.30;99.90;;;;;;5079269;28;20143;-63
2023/07/31 12:07:52;;;;;;;5.10;2.08;;;18.40;99.90;;;;;;5079022;28;20044;-63
2023/07/31 12:10:28;;;;;;;7.72;2.40;;;18.30;99.90;;;;;;5080350;28;20044;-68
2023/07/31 12:13:05;;;;;;;5.00;2.00;;;18.30;99.90;;;;;;5077999;28;20106;-65
2023/07/31 12:15:35;;;;;;;6.22;2.50;;;18.20;99.90;;;;;;5082599;28;20037;-63
2023/07/31 12:18:04;;;;;;;4.82;1.98;;;18.40;99.90;;;;;;5060876;28;20320;-62
2023/07/31 12:20:30;;;;;;;5.10;1.92;;;18.40;99.90;;;;;;5078990;28;20499;-61
2023/07/31 12:22:57;;;;;;;6.70;2.60;;;18.30;99.90;;;;;;5079867;28;20066;-61
2023/07/31 12:25:28;;;;;;;5.55;2.65;;;18.80;99.90;;;;;;5077680;28;20130;-60
2023/07/31 12:27:53;;;;;;;5.22;2.30;;;18.30;99.90;;;;;;5079969;28;20056;-61
2023/07/31 12:30:35;;;;;;;4.70;2.17;;;18.80;99.90;;;;;;5078050;28;20601;-61
2023/07/31 12:33:19;;;;;;;6.32;2.40;;;18.80;99.90;;;;;;5079595;28;20052;-61
2023/07/31 12:35:47;;;;;;;4.72;2.00;;;18.50;99.90;;;;;;5079861;28;20080;-61
2023/07/31 12:38:13;;;;;;;7.57;2.33;;;18.60;99.90;;;;;;5077745;28;20041;-60
2023/07/31 12:40:40;;;;;;;5.53;2.65;;;18.90;99.90;;;;;;5079572;28;20583;-61
2023/07/31 12:43:07;;;;;;;5.68;2.10;;;19.00;99.90;;;;;;5077978;28;20045;-61
2023/07/31 12:45:34;;;;;;;5.63;1.60;;;18.90;99.90;;;;;;5078928;28;20045;-61